Warning: A non-numeric value encountered in /home/portan24/public_html/weather28/metar/wsMetarTxt.php on line 608

Northport NY Webcam more information Northport NY Webcam


Visit our other weather sites:

Template documentation
and downloads

And another site



Nearby METAR Reports


Warning: A non-numeric value encountered in /home/portan24/public_html/weather28/metar/wsMetarTxt.php on line 608

Warning: A non-numeric value encountered in /home/portan24/public_html/weather28/metar/wsMetarTxt.php on line 608
   
EBBR - Brussels International Airport, Belgium
Distance from station: W 9 mi
Updated: Jul 16 2018 3:20 pm
Few Clouds  
Few Clouds  
   Wind: North 6.9 mph
Wind: North 6.9 mph
Temperature: 69.8°F
Dew Point: 55.4°F
Humidity: 60%
Barometer: 29.91 inHg
Clouds: Few Clouds
Visibility: More than 6 mi
Cloud details: Few Clouds 1829 m
EBBR 161920Z 01006KT 9999 FEW060TCU 21/13 Q1013 NOSIG
EBBE - Beauvechain (Bevekom), Belgium
Distance from station: SSE 10 mi
Updated: Jul 16 2018 3:25 pm
Light Rain, Overcast  
Light Rain, Overcast  
   Wind: North 6.9 mph
Wind: North 6.9 mph
Temperature: 69.8°F
Dew Point: 55.4°F
Humidity: 60%
Barometer: 29.91 inHg
Clouds: Overcast
Visibility: More than 6 mi
Cloud details: Overcast 3048 m
EBBE 161925Z AUTO 36006KT 9999 -RA OVC100/// 21/13 Q1013 BLU
EBDT - Schaffen, Belgium
Distance from station: ENE 18 mi
Updated: Jul 16 2018 3:25 pm
Overcast  
Overcast  
   Wind: NW 9.2 mph
Wind: NW 9.2 mph
Temperature: 71.6°F
Dew Point: 55.4°F
Humidity: 57%
Barometer: 29.91 inHg
Clouds: Overcast
Visibility: More than 6 mi
Cloud details: Few Clouds 2591 m,
Mostly Cloudy 3658 m,
Overcast 4572 m
EBDT 161925Z AUTO 31008KT 9999 FEW085/// BKN120/// OVC150/// 22/13 Q1013 BLU
EBAW - Antwerp/Deurne, Belgium
Distance from station: NNW 23 mi
Updated: Jul 16 2018 3:20 pm
Light Rain, Few Clouds  
Light Rain, Few Clouds  
   Wind: NNE 5.8 mph
Wind: NNE 5.8 mph
Temperature: 68°F
Dew Point: 59°F
Humidity: 73%
Barometer: 29.91 inHg
Clouds: Few Clouds
Visibility: More than 6 mi
Cloud details: Few Clouds 1829 m
EBAW 161920Z 03005KT 350V060 9999 -RA FEW060CB 20/15 Q1013 TEMPO -TSRA
EBCI - Charleroi/Gosselies, Belgium
Distance from station: SSW 32 mi
Updated: Jul 16 2018 3:20 pm
Clear  
Clear  
   Wind: varies 2.3 mph
Wind: varies 2.3 mph
Temperature: 69.8°F
Dew Point: 55.4°F
Humidity: 60%
Barometer: 29.91 inHg
Visibility: More than 6 mi
Cloud details: Clear m
EBCI 161920Z VRB02KT CAVOK 21/13 Q1013 NOSIG
EBLG - Bierset/Liege, Belgium
Distance from station: ESE 38 mi
Updated: Jul 16 2018 3:20 pm
Clear  
Clear  
   Wind: NW 10.4 mph
Wind: NW 10.4 mph
Temperature: 71.6°F
Dew Point: 51.8°F
Humidity: 50%
Barometer: 29.91 inHg
Visibility: More than 6 mi
Cloud details: Clear m
EBLG 161920Z 31009KT 280V340 CAVOK 22/11 Q1013 NOSIG

Script developed by  Saratoga-weather.org Adapted for the template by  Weerstation Leuven

You find our weather info also at:

Weather Underground

AWEKAS

Citizen Weather Observer Program (CWOP)

Equipment we use:

Weather-station
Davis VP2

Davis VP2